Time;durP1;ratioP1;P1;durP2;ratioP2;P2;SDS_P1;SDS_P2;PMS_P1;PMS_P2;Temp;Humidity;BMP_temperature;BMP_pressure;BME280_temperature;BME280_humidity;BME280_pressure;Samples;Min_cycle;Max_cycle;Signal;HPM_P1;HPM_P2
2022/12/06 00:01:35;;;;;;;14.63;13.75;;;;;;;7.02;66.67;101969.97;4996392;28;20030;-80
2022/12/06 00:04:05;;;;;;;18.27;16.98;;;;;;;7.02;67.19;101964.59;5013146;28;20045;-83
2022/12/06 00:06:33;;;;;;;17.05;15.75;;;;;;;7.02;67.11;101959.22;5014202;28;20119;-82
2022/12/06 00:08:59;;;;;;;17.05;15.75;;;;;;;7.01;66.99;101966.44;5014045;28;20103;-82
2022/12/06 00:11:27;;;;;;;15.95;14.82;;;;;;;7.01;67.00;101958.38;5008876;28;20045;-82
2022/12/06 00:14:05;;;;;;;17.23;15.70;;;;;;;7.01;67.03;101955.69;5007308;28;20123;-80
2022/12/06 00:16:32;;;;;;;17.67;16.33;;;;;;;7.01;67.03;101965.63;5013589;28;20316;-80
2022/12/06 00:18:58;;;;;;;17.88;16.48;;;;;;;7.02;67.21;101964.59;5012928;28;20097;-81
2022/12/06 00:21:29;;;;;;;18.60;16.80;;;;;;;7.00;67.18;101961.25;5031845;28;20160;-80
2022/12/06 00:24:01;;;;;;;18.13;16.77;;;;;;;7.01;67.12;101953.03;5013276;28;20113;-81
2022/12/06 00:26:26;;;;;;;15.98;14.90;;;;;;;7.02;67.07;101953.84;5013764;28;20037;-82
2022/12/06 00:28:54;;;;;;;17.52;16.23;;;;;;;7.02;66.93;101961.91;5011250;28;20034;-81
2022/12/06 00:31:21;;;;;;;15.95;14.95;;;;;;;7.02;66.98;101954.66;5012641;28;21160;-80
2022/12/06 00:33:47;;;;;;;15.95;14.98;;;;;;;7.02;66.66;101951.16;5013015;28;20045;-81
2022/12/06 00:36:18;;;;;;;15.57;14.57;;;;;;;7.01;67.04;101953.03;5011736;28;20037;-80
2022/12/06 00:38:44;;;;;;;15.57;14.50;;;;;;;7.01;66.97;101953.03;5011507;28;20021;-81
2022/12/06 00:41:12;;;;;;;17.65;16.45;;;;;;;7.01;66.90;101953.03;5010815;28;20061;-79
2022/12/06 00:43:38;;;;;;;18.17;16.90;;;;;;;7.01;66.80;101947.66;5013032;28;20057;-80
2022/12/06 00:46:06;;;;;;;18.17;16.85;;;;;;;7.01;66.79;101952.19;5011618;28;20065;-81
2022/12/06 00:48:32;;;;;;;17.02;15.70;;;;;;;7.02;66.88;101959.22;5012616;28;20495;-83
2022/12/06 00:50:58;;;;;;;17.92;16.58;;;;;;;7.01;66.83;101950.34;5016200;28;20030;-79
2022/12/06 00:53:24;;;;;;;16.10;15.00;;;;;;;7.02;67.09;101951.97;5017933;28;20030;-80
2022/12/06 00:55:50;;;;;;;16.00;14.90;;;;;;;7.02;66.95;101954.66;4995776;28;20541;-82
2022/12/06 00:58:16;;;;;;;16.10;15.00;;;;;;;7.03;66.76;101952.81;5011959;28;20072;-80
2022/12/06 01:00:43;;;;;;;16.75;15.50;;;;;;;7.03;66.92;101956.34;5010957;28;20116;-81
2022/12/06 01:03:09;;;;;;;18.40;17.00;;;;;;;7.03;67.05;101956.34;5010270;28;20058;-81
2022/12/06 01:05:42;;;;;;;17.92;16.33;;;;;;;7.05;66.95;101958.84;5012561;28;20040;-81
2022/12/06 01:08:08;;;;;;;16.27;15.07;;;;;;;7.04;66.87;101955.31;5010729;28;20037;-80
2022/12/06 01:10:34;;;;;;;16.92;15.82;;;;;;;7.06;66.80;101955.13;5012989;28;20063;-81
2022/12/06 01:12:59;;;;;;;16.70;15.55;;;;;;;7.04;67.25;101958.00;5011428;28;20095;-82
2022/12/06 01:15:25;;;;;;;24.52;16.33;;;;;;;7.05;67.08;101959.66;5027496;28;20030;-80
2022/12/06 01:17:50;;;;;;;16.88;15.45;;;;;;;7.06;67.01;101964.03;5012576;28;20058;-81
2022/12/06 01:20:16;;;;;;;17.55;16.45;;;;;;;7.05;67.12;101959.66;5011846;28;20038;-79
2022/12/06 01:22:41;;;;;;;15.57;14.57;;;;;;;7.04;66.89;101955.31;5024953;28;20030;-81
2022/12/06 01:25:07;;;;;;;17.67;16.17;;;;;;;7.05;66.99;101953.47;5013583;28;20101;-80
2022/12/06 01:27:32;;;;;;;16.60;15.60;;;;;;;7.05;67.21;101965.03;5012242;28;20045;-82
2022/12/06 01:29:57;;;;;;;19.02;17.55;;;;;;;7.04;67.04;101967.94;5010304;28;20069;-80
2022/12/06 01:32:23;;;;;;;16.50;15.35;;;;;;;7.05;66.97;101972.25;5017937;28;20428;-80
2022/12/06 01:34:51;;;;;;;17.13;15.65;;;;;;;7.04;67.01;101971.44;5013071;28;20045;-79
2022/12/06 01:37:17;;;;;;;16.88;15.07;;;;;;;7.04;66.89;101967.94;5010019;28;20696;-82
2022/12/06 01:39:43;;;;;;;15.43;14.05;;;;;;;7.05;66.92;101973.09;5026199;28;20036;-81
2022/12/06 01:42:11;;;;;;;17.85;16.25;;;;;;;7.06;66.90;101971.25;5011356;28;20026;-81
2022/12/06 01:44:40;;;;;;;17.33;16.13;;;;;;;7.05;66.92;101966.88;5012136;28;20038;-81
2022/12/06 01:47:30;;;;;;;17.55;16.15;;;;;;;7.05;66.83;101964.22;5010621;28;20025;-80
2022/12/06 01:50:03;;;;;;;13.80;13.10;;;;;;;7.04;66.92;101968.75;5010645;28;20033;-81
2022/12/06 01:52:33;;;;;;;15.85;14.60;;;;;;;7.04;66.96;101962.56;5024705;28;20430;-80
2022/12/06 01:55:00;;;;;;;17.08;15.95;;;;;;;7.04;67.09;101965.25;5011245;28;20030;-82
2022/12/06 01:57:26;;;;;;;17.92;16.63;;;;;;;7.05;66.71;101959.66;5012170;28;20484;-81
2022/12/06 01:59:51;;;;;;;17.00;15.90;;;;;;;7.07;66.88;101962.16;5011166;28;20052;-81
2022/12/06 02:02:17;;;;;;;15.80;14.65;;;;;;;7.07;66.80;101957.63;5011029;28;20597;-82
2022/12/06 02:04:43;;;;;;;16.63;15.48;;;;;;;7.06;66.77;101961.34;5010940;28;20117;-80
2022/12/06 02:07:10;;;;;;;17.90;16.60;;;;;;;7.06;66.85;101955.97;5009428;28;20044;-80
2022/12/06 02:09:37;;;;;;;15.90;14.90;;;;;;;7.07;66.70;101963.00;5022308;28;20030;-80
2022/12/06 02:12:05;;;;;;;15.50;14.55;;;;;;;7.07;66.69;101965.69;5009446;28;20482;-81
2022/12/06 02:14:32;;;;;;;18.40;17.08;;;;;;;7.08;66.96;101958.44;5011027;28;20038;-80
2022/12/06 02:17:00;;;;;;;16.30;15.18;;;;;;;7.07;66.84;101954.09;5011340;28;20045;-83
2022/12/06 02:19:37;;;;;;;15.88;14.93;;;;;;;7.07;66.84;101956.78;5012218;28;20030;-79
2022/12/06 02:22:02;;;;;;;16.17;14.57;;;;;;;7.08;66.89;101959.31;5010945;28;20038;-80
2022/12/06 02:24:41;;;;;;;17.25;15.93;;;;;;;7.06;66.54;101953.28;5018750;28;20040;-79
2022/12/06 02:27:34;;;;;;;17.10;15.80;;;;;;;7.08;66.88;101950.38;4998591;28;20030;-81
2022/12/06 02:30:12;;;;;;;16.73;15.35;;;;;;;7.07;66.78;101948.72;4999174;28;20034;-82
2022/12/06 02:32:49;;;;;;;15.18;14.27;;;;;;;7.06;66.88;101950.59;5009240;28;20038;-82
2022/12/06 02:35:23;;;;;;;15.27;14.27;;;;;;;7.07;66.81;101946.03;5009605;28;20026;-80
2022/12/06 02:37:57;;;;;;;17.77;16.48;;;;;;;7.06;67.02;101950.59;5011567;28;20489;-81
2022/12/06 02:40:32;;;;;;;17.77;16.58;;;;;;;7.06;66.72;101950.59;5011778;28;20056;-80
2022/12/06 02:43:05;;;;;;;17.52;16.23;;;;;;;7.07;66.50;101949.56;5005157;28;20022;-81
2022/12/06 02:45:37;;;;;;;16.75;15.65;;;;;;;7.07;66.64;101944.19;5011007;28;20057;-80
2022/12/06 02:48:03;;;;;;;16.15;15.05;;;;;;;7.07;66.96;101941.50;5026438;28;20034;-80
2022/12/06 02:50:38;;;;;;;15.35;14.35;;;;;;;7.08;66.77;101953.06;5014538;28;20030;-82
2022/12/06 02:53:09;;;;;;;16.42;15.43;;;;;;;7.08;66.67;101948.56;5009833;28;20088;-81
2022/12/06 02:55:35;;;;;;;17.75;16.65;;;;;;;7.08;66.86;101945.00;5002507;28;20028;-81
2022/12/06 02:58:01;;;;;;;16.15;14.95;;;;;;;7.08;66.67;101940.50;5010915;28;20076;-81
2022/12/06 03:00:58;;;;;;;16.45;15.25;;;;;;;7.08;66.60;101940.50;5009194;28;20062;-83
2022/12/06 03:03:36;;;;;;;17.00;15.77;;;;;;;7.08;66.72;101932.44;5010112;28;20042;-81
2022/12/06 03:06:01;;;;;;;16.65;15.55;;;;;;;7.09;66.74;101935.94;5010778;28;20077;-80
2022/12/06 03:09:08;;;;;;;15.77;14.68;;;;;;;7.09;66.83;101946.69;5010278;28;20046;-80
2022/12/06 03:11:54;;;;;;;16.65;15.55;;;;;;;7.09;66.51;101927.88;5012559;28;20115;-82
2022/12/06 03:14:23;;;;;;;15.98;14.68;;;;;;;7.08;66.64;101945.00;5029041;28;20504;-80
2022/12/06 03:16:54;;;;;;;15.77;14.70;;;;;;;7.09;66.69;101949.38;5013750;28;20044;-78
2022/12/06 03:19:23;;;;;;;17.85;16.38;;;;;;;7.08;66.50;101940.50;5014255;28;20029;-81
2022/12/06 03:21:57;;;;;;;15.85;14.70;;;;;;;7.09;66.54;101941.31;5014242;28;20091;-82
2022/12/06 03:24:27;;;;;;;18.25;16.95;;;;;;;7.09;66.68;101944.84;5014331;28;20033;-81
2022/12/06 03:26:55;;;;;;;16.15;15.15;;;;;;;7.09;66.71;101952.06;5013074;28;20580;-81
2022/12/06 03:29:24;;;;;;;17.33;16.00;;;;;;;7.10;66.70;101945.66;5009614;28;20149;-80
2022/12/06 03:31:51;;;;;;;;;;;;;;;7.11;66.59;101950.03;5008331;28;20137;-68
2022/12/06 03:34:22;;;;;;;18.73;17.00;;;;;;;7.09;66.51;101949.38;5020240;28;19920;-69
2022/12/06 03:36:50;;;;;;;15.82;14.63;;;;;;;7.08;66.44;101947.69;5013953;28;20116;-67
2022/12/06 03:39:29;;;;;;;18.13;16.63;;;;;;;7.08;66.56;101947.69;5013397;28;20025;-67
2022/12/06 03:41:56;;;;;;;21.13;15.27;;;;;;;7.07;66.52;101946.88;5013919;28;20026;-67
2022/12/06 03:44:23;;;;;;;17.27;15.82;;;;;;;7.07;66.62;101946.88;5027067;28;20022;-68
2022/12/06 03:46:53;;;;;;;16.65;15.45;;;;;;;7.07;66.80;101943.34;5017707;28;20105;-68
2022/12/06 03:49:25;;;;;;;17.10;15.85;;;;;;;7.08;66.79;101947.69;5013763;28;20057;-68
2022/12/06 03:51:51;;;;;;;16.15;15.05;;;;;;;7.07;66.52;101936.13;5013307;28;20466;-70
2022/12/06 03:54:17;;;;;;;18.85;16.88;;;;;;;7.07;66.81;101944.19;5021606;28;20068;-69
2022/12/06 03:56:42;;;;;;;17.55;16.25;;;;;;;7.07;66.70;101944.19;5022617;28;20393;-70
2022/12/06 03:59:09;;;;;;;16.35;15.25;;;;;;;7.08;66.70;101942.31;5013284;28;20073;-68
2022/12/06 04:01:35;;;;;;;15.85;14.77;;;;;;;7.09;66.77;101944.00;5012816;28;20030;-67
2022/12/06 04:04:00;;;;;;;16.73;15.70;;;;;;;7.08;66.71;101948.56;5014426;28;20064;-67
2022/12/06 04:06:26;;;;;;;19.35;17.73;;;;;;;7.08;66.72;101955.75;5013288;28;20091;-68
2022/12/06 04:08:51;;;;;;;15.82;14.77;;;;;;;7.08;66.87;101943.19;5013201;28;20045;-68
2022/12/06 04:11:17;;;;;;;18.13;16.80;;;;;;;7.08;66.88;101943.19;5012352;28;20084;-70
2022/12/06 04:13:42;;;;;;;15.93;14.63;;;;;;;7.09;66.96;101941.31;5013762;28;20574;-69
2022/12/06 04:18:53;;;;;;;16.67;15.52;;;;;;;7.08;66.61;101936.94;5014988;28;20109;-70
2022/12/06 04:23:56;;;;;;;17.17;16.02;;;;;;;7.07;66.77;101938.81;5022957;28;20037;-70
2022/12/06 04:26:22;;;;;;;19.10;17.40;;;;;;;7.08;66.44;101943.19;5016401;28;20041;-68
2022/12/06 04:39:47;;;;;;;16.55;15.27;;;;;;;7.07;66.62;101946.88;5012820;28;20048;-67
2022/12/06 04:44:57;;;;;;;14.60;13.80;;;;;;;7.07;66.51;101944.19;4999755;28;20041;-69
2022/12/06 04:47:23;;;;;;;16.67;15.43;;;;;;;7.07;66.64;101951.41;5018955;28;20041;-67
2022/12/06 04:49:48;;;;;;;16.80;15.48;;;;;;;7.07;66.89;101944.19;5012584;28;20034;-67
2022/12/06 04:52:17;;;;;;;17.58;15.85;;;;;;;7.07;66.59;101944.19;5012604;28;20038;-68
2022/12/06 04:54:42;;;;;;;15.88;14.82;;;;;;;7.08;66.78;101936.94;5011970;28;20045;-68
2022/12/06 04:57:11;;;;;;;16.02;15.13;;;;;;;7.08;66.51;101932.44;5017105;28;20390;-68
2022/12/06 04:59:38;;;;;;;17.17;15.82;;;;;;;7.08;66.82;101935.13;5012076;28;20080;-68
2022/12/06 05:02:04;;;;;;;16.40;15.30;;;;;;;7.08;66.68;101931.56;5012845;28;20076;-68
2022/12/06 05:04:30;;;;;;;18.25;16.65;;;;;;;7.08;66.79;101923.53;5012078;28;20482;-68
2022/12/06 05:06:56;;;;;;;16.90;15.90;;;;;;;7.08;66.74;101919.00;5014135;28;20040;-68
2022/12/06 05:09:21;;;;;;;17.17;15.73;;;;;;;7.08;66.71;101927.06;5011763;28;20034;-71
2022/12/06 05:11:47;;;;;;;15.80;14.68;;;;;;;7.09;66.58;101927.88;5010446;28;20033;-68
2022/12/06 05:14:12;;;;;;;16.25;15.15;;;;;;;7.08;66.75;101932.44;5012216;28;20034;-71
2022/12/06 05:16:37;;;;;;;18.30;17.00;;;;;;;7.08;66.61;101921.69;5012107;28;20030;-70
2022/12/06 05:19:03;;;;;;;17.05;15.68;;;;;;;7.09;66.82;101930.56;5028587;28;20374;-69
2022/12/06 05:21:28;;;;;;;18.90;17.42;;;;;;;7.09;66.43;101927.88;5011441;28;20049;-69
2022/12/06 05:23:55;;;;;;;16.45;15.35;;;;;;;7.09;66.58;101933.25;5027144;28;20133;-68
2022/12/06 05:26:24;;;;;;;17.52;16.17;;;;;;;7.09;66.59;101933.25;5011430;28;20038;-70
2022/12/06 05:28:50;;;;;;;18.23;16.38;;;;;;;7.08;66.45;101929.75;5022589;28;20458;-68
2022/12/06 05:31:16;;;;;;;17.05;15.60;;;;;;;7.08;66.82;101924.38;5017510;28;20522;-67
2022/12/06 05:33:41;;;;;;;17.70;16.40;;;;;;;7.08;66.59;101926.19;5010455;28;20037;-68
2022/12/06 05:36:12;;;;;;;17.42;16.30;;;;;;;7.09;66.65;101930.56;5011778;28;20113;-68
2022/12/06 05:38:38;;;;;;;16.60;15.43;;;;;;;7.07;66.53;101925.38;5016120;28;20041;-68
2022/12/06 05:41:04;;;;;;;18.40;17.00;;;;;;;7.08;66.45;101929.75;5018723;28;20096;-69
2022/12/06 05:43:29;;;;;;;17.83;16.45;;;;;;;7.07;66.64;101925.38;5010836;28;20116;-69
2022/12/06 05:45:55;;;;;;;17.75;16.55;;;;;;;7.07;66.88;101930.75;5011572;28;20437;-69
2022/12/06 05:48:21;;;;;;;16.35;15.18;;;;;;;7.10;66.66;101926.84;5011786;28;20422;-70
2022/12/06 05:50:48;;;;;;;17.02;15.73;;;;;;;7.10;66.53;101924.16;5012063;28;20033;-67
2022/12/06 05:53:14;;;;;;;17.55;16.08;;;;;;;7.09;66.61;101925.19;5010887;28;20052;-69
2022/12/06 05:55:40;;;;;;;16.38;15.25;;;;;;;7.09;66.67;101922.50;5010334;28;20103;-69
2022/12/06 05:58:05;;;;;;;14.68;13.77;;;;;;;7.09;66.77;101925.19;5011677;28;20411;-68
2022/12/06 06:00:31;;;;;;;17.88;16.73;;;;;;;7.08;66.51;101932.44;5001121;28;20038;-67
2022/12/06 06:02:56;;;;;;;16.85;15.68;;;;;;;7.09;66.65;101930.56;5008841;28;20037;-68
2022/12/06 06:05:22;;;;;;;16.50;15.35;;;;;;;7.09;66.62;101933.25;5010330;28;20026;-68
2022/12/06 06:07:47;;;;;;;16.55;15.43;;;;;;;7.10;66.64;101929.53;5010663;28;20041;-68
2022/12/06 06:10:13;;;;;;;16.83;15.50;;;;;;;7.09;66.49;101934.09;5017738;28;20106;-68
2022/12/06 06:12:39;;;;;;;17.20;15.80;;;;;;;7.10;66.77;101937.59;5019230;28;20478;-68
2022/12/06 06:15:06;;;;;;;16.88;15.57;;;;;;;7.09;66.53;101936.78;5011465;28;20045;-69
2022/12/06 06:17:32;;;;;;;16.77;15.57;;;;;;;7.07;66.62;101936.13;5009290;28;20045;-69
2022/12/06 06:19:58;;;;;;;16.20;15.20;;;;;;;7.10;66.79;101934.91;5012228;28;20095;-68
2022/12/06 06:22:23;;;;;;;16.08;15.00;;;;;;;7.09;66.75;101938.63;5010244;28;20129;-68
2022/12/06 06:24:50;;;;;;;18.40;17.10;;;;;;;7.09;66.50;101931.41;5010021;28;20038;-69
2022/12/06 06:27:16;;;;;;;17.63;16.15;;;;;;;7.09;66.54;101934.09;5010719;28;20033;-68
2022/12/06 06:29:41;;;;;;;19.67;17.83;;;;;;;7.10;66.68;101927.69;5010755;28;20030;-68
2022/12/06 06:32:06;;;;;;;15.93;14.93;;;;;;;7.09;66.60;101927.88;5023005;28;20458;-70
2022/12/06 06:34:32;;;;;;;16.13;15.18;;;;;;;7.09;66.53;101930.56;5009026;28;20038;-70
2022/12/06 06:36:57;;;;;;;16.58;15.48;;;;;;;7.08;66.37;101931.56;5010970;28;20030;-70
2022/12/06 06:39:22;;;;;;;16.38;15.48;;;;;;;7.08;66.70;101935.13;5011216;28;20040;-68
2022/12/06 06:41:48;;;;;;;17.70;16.55;;;;;;;7.08;66.77;101936.94;5010552;28;20164;-69
2022/12/06 06:44:13;;;;;;;15.13;14.32;;;;;;;7.07;66.54;101935.31;5010942;28;20073;-73
2022/12/06 06:46:39;;;;;;;18.10;16.45;;;;;;;7.08;66.76;101936.94;5008060;28;20030;-71
2022/12/06 06:49:04;;;;;;;18.35;16.77;;;;;;;7.09;66.67;101935.94;5002923;28;20068;-67
2022/12/06 06:51:31;;;;;;;16.63;15.63;;;;;;;7.08;66.53;101929.75;5018124;28;20514;-73
2022/12/06 06:53:57;;;;;;;16.17;15.10;;;;;;;7.08;66.58;101932.44;5014937;28;20026;-69
2022/12/06 06:56:22;;;;;;;15.98;15.07;;;;;;;7.07;66.93;101928.06;5014245;28;20040;-68
2022/12/06 06:58:47;;;;;;;16.02;14.98;;;;;;;7.08;66.64;101931.56;5013835;28;20117;-68
2022/12/06 07:01:16;;;;;;;16.75;15.30;;;;;;;7.07;66.62;101933.44;5016529;28;20084;-68
2022/12/06 07:03:42;;;;;;;;;;;;;;;7.07;66.76;101936.13;5014551;28;20046;-69
2022/12/06 07:06:08;;;;;;;16.42;14.10;;;;;;;7.06;66.58;101933.66;5012640;28;19928;-67
2022/12/06 07:08:34;;;;;;;14.93;13.95;;;;;;;7.04;66.68;101923.06;5013136;28;20091;-69
2022/12/06 07:11:00;;;;;;;16.40;15.35;;;;;;;7.04;66.50;101923.06;5017948;28;20025;-69
2022/12/06 07:13:27;;;;;;;16.23;14.82;;;;;;;7.03;66.39;101925.94;5023269;28;20025;-68
2022/12/06 07:15:52;;;;;;;15.90;14.82;;;;;;;7.04;66.39;101919.56;5014129;28;20030;-68
2022/12/06 07:18:19;;;;;;;16.08;14.90;;;;;;;7.04;66.54;101922.25;5013734;28;20493;-68
2022/12/06 07:20:45;;;;;;;19.83;15.38;;;;;;;7.04;66.71;101922.25;5013872;28;20038;-67
2022/12/06 07:23:11;;;;;;;16.00;14.70;;;;;;;7.04;66.59;101924.94;5016009;28;20078;-69
2022/12/06 07:25:37;;;;;;;16.33;15.20;;;;;;;7.04;66.48;101923.06;5013964;28;20109;-68
2022/12/06 07:28:03;;;;;;;17.05;15.60;;;;;;;7.04;66.75;101920.41;5014562;28;20053;-69
2022/12/06 07:30:29;;;;;;;16.70;15.20;;;;;;;7.04;66.76;101920.41;5014286;28;20445;-72
2022/12/06 07:32:55;;;;;;;16.35;15.23;;;;;;;7.05;66.80;101926.59;5015544;28;20116;-68
2022/12/06 07:35:20;;;;;;;16.38;15.35;;;;;;;7.04;66.99;101920.41;5013717;28;20113;-66
2022/12/06 07:37:46;;;;;;;16.90;15.43;;;;;;;7.04;66.62;101939.19;5014064;28;20059;-66
2022/12/06 07:40:14;;;;;;;15.48;14.48;;;;;;;7.05;66.49;101931.97;5013795;28;20050;-67
2022/12/06 07:45:23;;;;;;;15.38;14.43;;;;;;;7.04;66.60;101941.06;5014577;28;20091;-68
2022/12/06 07:47:49;;;;;;;17.83;16.52;;;;;;;7.04;66.67;101941.06;5013278;28;20449;-67
2022/12/06 07:50:19;;;;;;;15.90;14.90;;;;;;;7.04;66.76;101941.88;5012686;28;20037;-67
2022/12/06 07:52:49;;;;;;;17.38;16.02;;;;;;;7.04;66.50;101947.25;5015839;28;20658;-66
2022/12/06 07:55:16;;;;;;;15.35;14.50;;;;;;;7.04;66.69;101946.44;5020054;28;20038;-70
2022/12/06 07:57:41;;;;;;;17.98;16.63;;;;;;;7.03;66.88;101950.13;5012291;28;20025;-67
2022/12/06 08:00:09;;;;;;;17.52;15.38;;;;;;;7.04;66.59;101951.81;5013998;28;20500;-67
2022/12/06 08:02:34;;;;;;;15.77;14.68;;;;;;;7.03;66.45;101950.13;5013075;28;20038;-67
2022/12/06 08:05:00;;;;;;;15.82;14.73;;;;;;;7.03;66.81;101950.13;5023910;28;20422;-67
2022/12/06 08:07:25;;;;;;;16.58;14.57;;;;;;;7.04;66.40;101954.50;5014027;28;20034;-69
2022/12/06 08:09:52;;;;;;;19.35;16.92;;;;;;;7.03;66.77;101950.97;5013027;28;20040;-68
2022/12/06 08:12:21;;;;;;;18.98;17.17;;;;;;;7.03;66.73;101959.03;5013689;28;20539;-69
2022/12/06 08:14:47;;;;;;;17.00;15.65;;;;;;;7.03;66.31;101950.97;5013713;28;20477;-69
2022/12/06 08:17:12;;;;;;;15.80;14.77;;;;;;;7.04;66.67;101951.81;5013379;28;20048;-70
2022/12/06 08:19:38;;;;;;;15.75;14.75;;;;;;;7.03;66.74;101953.66;5013050;28;20030;-69
2022/12/06 08:22:03;;;;;;;15.02;14.02;;;;;;;7.03;66.52;101956.34;5013076;28;20121;-68
2022/12/06 08:24:29;;;;;;;16.35;15.35;;;;;;;7.03;66.92;101950.13;5014594;28;20030;-68
2022/12/06 08:26:54;;;;;;;18.25;16.73;;;;;;;7.03;66.69;101944.75;5012891;28;20028;-68
2022/12/06 08:29:20;;;;;;;15.02;14.10;;;;;;;7.03;66.84;101958.19;5012894;28;20401;-69
2022/12/06 08:31:45;;;;;;;17.05;15.90;;;;;;;7.02;66.54;101956.53;5012209;28;20338;-69
2022/12/06 08:34:12;;;;;;;16.77;15.60;;;;;;;7.02;66.53;101962.72;4997542;28;20039;-68
2022/12/06 08:36:39;;;;;;;15.70;14.70;;;;;;;7.02;66.42;101962.72;5022853;28;20390;-68
2022/12/06 08:39:05;;;;;;;15.35;14.43;;;;;;;7.02;66.72;101956.53;5012293;28;20034;-69
2022/12/06 08:44:33;;;;;;;14.45;13.55;;;;;;;7.02;66.46;101959.22;5024417;28;20037;-69
2022/12/06 08:47:01;;;;;;;18.33;17.02;;;;;;;7.01;66.60;101963.75;5017192;28;20478;-68
2022/12/06 08:49:28;;;;;;;16.42;15.43;;;;;;;7.02;66.72;101959.22;5012893;28;20496;-67
2022/12/06 08:51:53;;;;;;;17.70;16.30;;;;;;;7.01;66.53;101961.06;5012123;28;20474;-67
2022/12/06 08:54:21;;;;;;;15.13;14.23;;;;;;;7.02;66.83;101957.34;5011899;28;20034;-68
2022/12/06 08:56:48;;;;;;;16.13;14.90;;;;;;;7.01;66.52;101963.75;5019501;28;20477;-68
2022/12/06 08:59:14;;;;;;;15.55;14.65;;;;;;;7.01;66.65;101963.75;5012791;28;20045;-69
2022/12/06 09:01:40;;;;;;;16.85;15.73;;;;;;;7.01;66.78;101965.63;5012728;28;20038;-67
2022/12/06 09:04:08;;;;;;;16.73;15.63;;;;;;;7.01;66.84;101966.44;5012525;28;20440;-67
2022/12/06 09:06:36;;;;;;;16.67;15.15;;;;;;;7.01;66.50;101962.94;5015181;28;20037;-69
2022/12/06 09:09:01;;;;;;;18.33;16.83;;;;;;;7.00;66.89;101964.75;5028243;28;20034;-70
2022/12/06 09:11:27;;;;;;;15.80;14.82;;;;;;;7.01;66.80;101965.63;5013201;28;20038;-68
2022/12/06 09:13:52;;;;;;;17.90;16.60;;;;;;;7.01;66.65;101969.13;5016818;28;20060;-68
2022/12/06 09:16:20;;;;;;;16.48;15.38;;;;;;;7.01;66.89;101973.69;5016043;28;20489;-69
2022/12/06 09:18:46;;;;;;;15.27;14.33;;;;;;;7.00;66.83;101972.81;5009777;28;20033;-71
2022/12/06 09:21:16;;;;;;;15.32;14.38;;;;;;;7.00;66.69;101978.19;5009864;28;20026;-69
2022/12/06 09:23:42;;;;;;;16.08;14.70;;;;;;;7.00;66.55;101974.69;5004133;28;20030;-69
2022/12/06 09:26:07;;;;;;;18.10;16.70;;;;;;;6.99;66.60;101973.84;5002708;28;20646;-69
2022/12/06 09:28:35;;;;;;;18.00;16.63;;;;;;;7.00;66.60;101972.00;4998431;28;20065;-66
2022/12/06 09:31:02;;;;;;;17.42;16.10;;;;;;;6.99;66.33;101973.84;5025498;28;20427;-68
2022/12/06 09:33:27;;;;;;;16.42;15.27;;;;;;;7.00;66.57;101982.75;5010016;28;20101;-69
2022/12/06 09:35:53;;;;;;;19.58;17.80;;;;;;;7.00;66.70;101986.25;5008793;28;20210;-69
2022/12/06 09:38:21;;;;;;;15.10;14.10;;;;;;;6.99;66.47;101984.59;5010057;28;20034;-68
2022/12/06 09:41:02;;;;;;;17.17;15.68;;;;;;;6.99;66.73;101981.91;5010321;28;20120;-69
2022/12/06 09:43:43;;;;;;;17.67;16.48;;;;;;;6.99;66.74;101976.53;5009506;28;20065;-69
2022/12/06 09:46:23;;;;;;;17.17;16.15;;;;;;;6.99;66.60;101983.78;5009744;28;20501;-68
2022/12/06 09:49:25;;;;;;;17.52;16.33;;;;;;;6.98;66.73;101982.09;5007884;28;20398;-68
2022/12/06 09:52:18;;;;;;;17.30;15.90;;;;;;;6.98;66.48;101984.78;4983225;28;20038;-67
2022/12/06 09:55:05;;;;;;;16.23;14.90;;;;;;;6.97;66.64;101980.44;5006677;28;20469;-72
2022/12/06 09:57:41;;;;;;;16.92;15.27;;;;;;;6.97;66.43;101980.44;5010422;28;20033;-67
2022/12/06 10:00:07;;;;;;;15.90;14.80;;;;;;;6.96;66.57;101987.69;5009891;28;20068;-69
2022/12/06 10:03:26;;;;;;;16.52;15.32;;;;;;;6.96;66.64;101978.78;5010708;28;20461;-70
2022/12/06 10:06:01;;;;;;;16.60;15.55;;;;;;;6.95;66.69;101986.00;5026844;28;20132;-69
2022/12/06 10:08:54;;;;;;;14.75;13.85;;;;;;;6.95;66.42;101983.31;5013008;28;20088;-68
2022/12/06 10:11:47;;;;;;;14.65;13.85;;;;;;;6.95;66.51;101986.00;5008798;28;20030;-69
2022/12/06 10:14:44;;;;;;;15.52;14.23;;;;;;;6.94;66.54;101977.09;5008633;28;20095;-68
2022/12/06 10:17:28;;;;;;;18.13;16.67;;;;;;;6.93;66.35;101972.78;5008737;28;20025;-70
2022/12/06 10:20:11;;;;;;;16.60;15.35;;;;;;;6.92;66.57;101971.09;5009489;28;20037;-68
2022/12/06 10:22:46;;;;;;;15.98;14.88;;;;;;;6.92;66.67;101968.41;5009792;28;20470;-69
2022/12/06 10:25:22;;;;;;;16.88;15.77;;;;;;;6.92;66.70;101968.41;5009841;28;20735;-67
2022/12/06 10:28:24;;;;;;;15.90;14.88;;;;;;;6.93;66.69;101974.63;5009289;28;20038;-69
2022/12/06 10:31:00;;;;;;;16.90;15.20;;;;;;;6.92;66.65;101965.72;5014822;28;20077;-70
2022/12/06 10:34:14;;;;;;;16.35;15.35;;;;;;;6.93;66.74;101971.94;5010483;28;20033;-68
2022/12/06 10:37:01;;;;;;;14.95;14.05;;;;;;;6.92;66.47;101965.72;5007462;28;20427;-69
2022/12/06 10:39:32;;;;;;;17.23;15.88;;;;;;;6.91;66.65;101965.91;4998702;28;20036;-67
2022/12/06 10:42:11;;;;;;;17.70;16.33;;;;;;;6.91;66.79;101968.59;5009002;28;20049;-70
2022/12/06 10:44:45;;;;;;;17.73;16.33;;;;;;;6.91;66.48;101966.75;4992353;28;20022;-68
2022/12/06 10:47:17;;;;;;;16.55;15.35;;;;;;;6.92;66.79;101964.88;5008916;28;20045;-69
2022/12/06 10:50:07;;;;;;;16.38;15.13;;;;;;;6.91;66.61;101964.06;5009564;28;20022;-69
2022/12/06 10:52:46;;;;;;;15.43;14.30;;;;;;;6.91;66.66;101969.44;5010195;28;20030;-69
2022/12/06 10:55:25;;;;;;;16.52;15.32;;;;;;;6.90;66.65;101970.47;5010175;28;20033;-68
2022/12/06 10:58:03;;;;;;;17.02;15.68;;;;;;;6.90;66.79;101965.09;5008757;28;20030;-68
2022/12/06 11:00:31;;;;;;;15.95;14.48;;;;;;;6.90;66.73;101975.84;5009983;28;20533;-68
2022/12/06 11:03:10;;;;;;;17.02;15.50;;;;;;;6.90;66.54;101973.16;5009262;28;20026;-68
2022/12/06 11:05:47;;;;;;;16.35;14.85;;;;;;;6.90;66.57;101962.41;5009784;28;20124;-68
2022/12/06 11:08:18;;;;;;;18.05;16.45;;;;;;;6.91;66.55;101963.22;5009651;28;20045;-68
2022/12/06 11:10:45;;;;;;;15.18;14.18;;;;;;;6.91;66.67;101965.91;5008825;28;20048;-69
2022/12/06 11:13:34;;;;;;;23.77;16.50;;;;;;;6.90;66.67;101961.53;5009357;28;20025;-69
2022/12/06 11:16:06;;;;;;;16.35;15.15;;;;;;;6.90;66.68;101964.22;5009414;28;20363;-67
2022/12/06 11:18:32;;;;;;;15.70;14.70;;;;;;;6.90;66.85;101964.22;5023488;28;20372;-69
2022/12/06 11:21:03;;;;;;;17.02;15.65;;;;;;;6.90;66.49;101966.91;5008557;28;20030;-69
2022/12/06 11:23:40;;;;;;;14.68;13.77;;;;;;;6.91;66.69;101965.91;5009451;28;20045;-70
2022/12/06 11:26:43;;;;;;;21.13;16.98;;;;;;;6.91;66.66;101971.28;5008299;28;20033;-70
2022/12/06 11:29:13;;;;;;;27.30;19.38;;;;;;;6.90;66.66;101962.41;5008919;28;20038;-68
2022/12/06 11:31:44;;;;;;;16.42;15.32;;;;;;;6.90;66.34;101965.09;5010689;28;20025;-67
2022/12/06 11:34:24;;;;;;;17.25;16.02;;;;;;;6.90;66.50;101954.34;5012152;28;20022;-68
2022/12/06 11:36:52;;;;;;;17.63;16.42;;;;;;;6.91;66.73;101957.84;5019458;28;20021;-68
2022/12/06 11:39:17;;;;;;;17.33;16.02;;;;;;;6.91;66.51;101957.84;5013310;28;20037;-71
2022/12/06 11:41:49;;;;;;;15.90;14.85;;;;;;;6.91;66.63;101947.13;5012650;28;20046;-68
2022/12/06 11:44:35;;;;;;;17.55;16.17;;;;;;;6.91;66.73;101950.63;4997041;28;20036;-68
2022/12/06 11:47:01;;;;;;;16.73;15.48;;;;;;;6.91;66.60;101942.56;5015038;28;20034;-68
2022/12/06 11:49:29;;;;;;;15.23;14.30;;;;;;;6.92;66.62;101940.72;5011733;28;20041;-70
2022/12/06 11:51:56;;;;;;;16.65;15.55;;;;;;;6.92;66.77;101938.84;5012343;28;20034;-67
2022/12/06 11:54:26;;;;;;;15.68;14.75;;;;;;;6.91;66.66;101934.50;5012221;28;20109;-68